createdAt,value
2019-05-15T00:00:54.271Z,102962.31
2019-05-15T00:01:55.754Z,102965.00
2019-05-15T00:02:58.948Z,102960.22
2019-05-15T00:04:00.451Z,102963.28
2019-05-15T00:05:03.234Z,102957.53
2019-05-15T00:06:04.618Z,102964.72
2019-05-15T00:07:06.105Z,102963.38
2019-05-15T00:08:09.298Z,102961.66
2019-05-15T00:09:10.840Z,102966.56
2019-05-15T00:10:13.129Z,102959.84
2019-05-15T00:11:14.516Z,102962.16
2019-05-15T00:12:15.892Z,102962.16
2019-05-15T00:13:18.509Z,102965.22
2019-05-15T00:14:21.175Z,102965.22
2019-05-15T00:15:22.560Z,102968.28
2019-05-15T00:16:23.952Z,102965.09
2019-05-15T00:17:25.337Z,102963.50
2019-05-15T00:18:28.196Z,102967.78
2019-05-15T00:19:29.660Z,102961.94
2019-05-15T00:20:31.044Z,102966.81
2019-05-15T00:21:32.441Z,102961.44
2019-05-15T00:22:33.856Z,102962.31
2019-05-15T00:23:35.253Z,102961.34
2019-05-15T00:24:38.186Z,102962.69
2019-05-15T00:25:39.872Z,102958.66
2019-05-15T00:26:41.266Z,102965.25
2019-05-15T00:27:42.826Z,102962.09
2019-05-15T00:28:44.213Z,102968.31
2019-05-15T00:29:45.749Z,102959.77
2019-05-15T00:30:48.139Z,102960.62
2019-05-15T00:31:49.736Z,102956.58
2019-05-15T00:32:52.118Z,102962.46
2019-05-15T00:33:53.508Z,102966.87
2019-05-15T00:34:54.916Z,102962.33
2019-05-15T00:35:56.310Z,102965.02
2019-05-15T00:36:58.424Z,102964.55
2019-05-15T00:38:00.004Z,102961.86
2019-05-15T00:39:01.480Z,102969.43
2019-05-15T00:40:05.263Z,102965.02
2019-05-15T00:41:09.156Z,102964.55
2019-05-15T00:42:09.909Z,102967.71
2019-05-15T00:43:11.306Z,102969.05
2019-05-15T00:44:12.691Z,102969.56
2019-05-15T00:45:14.406Z,102968.31
2019-05-15T00:46:18.195Z,102970.02
2019-05-15T00:47:19.172Z,102972.34
2019-05-15T00:48:20.553Z,102971.88
2019-05-15T00:49:21.936Z,102967.94
2019-05-15T00:50:23.640Z,102966.59
2019-05-15T00:51:25.023Z,102967.47
2019-05-15T00:52:28.247Z,102971.12
2019-05-15T00:53:29.999Z,102976.50
2019-05-15T00:54:31.396Z,102973.81
2019-05-15T00:55:32.812Z,102977.47
2019-05-15T00:56:34.300Z,102972.09
2019-05-15T00:57:35.696Z,102973.44
2019-05-15T00:58:37.183Z,102974.78
2019-05-15T00:59:39.093Z,102974.41
2019-05-15T01:00:43.074Z,102975.75
2019-05-15T01:01:45.458Z,102969.88
2019-05-15T01:02:48.691Z,102973.44
2019-05-15T01:03:51.124Z,102968.16
2019-05-15T01:04:52.516Z,102971.72
2019-05-15T01:05:53.925Z,102971.72
2019-05-15T01:06:55.309Z,102972.69
2019-05-15T01:07:58.679Z,102967.78
2019-05-15T01:09:00.029Z,102969.63
2019-05-15T01:10:01.401Z,102972.31
2019-05-15T01:11:02.873Z,102971.34
2019-05-15T01:12:04.355Z,102972.19
2019-05-15T01:13:08.327Z,102968.28
2019-05-15T01:14:12.220Z,102971.34
2019-05-15T01:15:12.512Z,102971.72
2019-05-15T01:16:13.935Z,102972.19
2019-05-15T01:17:15.418Z,102974.41
2019-05-15T01:18:18.751Z,102970.38
2019-05-15T01:19:20.181Z,102971.22
2019-05-15T01:20:21.880Z,102970.25
2019-05-15T01:21:23.300Z,102969.41
2019-05-15T01:22:24.692Z,102970.25
2019-05-15T01:23:28.089Z,102969.28
2019-05-15T01:24:29.487Z,102969.78
2019-05-15T01:25:30.992Z,102966.59
2019-05-15T01:26:32.385Z,102967.94
2019-05-15T01:27:33.760Z,102963.06
2019-05-15T01:28:35.158Z,102967.47
2019-05-15T01:29:44.392Z,102970.02
2019-05-15T01:30:39.937Z,102966.59
2019-05-15T01:31:41.346Z,102964.28
2019-05-15T01:32:42.756Z,102971.50
2019-05-15T01:33:44.262Z,102974.56
2019-05-15T01:34:45.694Z,102972.84
2019-05-15T01:35:48.790Z,102971.97
2019-05-15T01:36:51.587Z,102972.47
2019-05-15T01:37:52.953Z,102980.91
2019-05-15T01:38:58.600Z,102974.66
2019-05-15T01:40:00.091Z,102979.56
2019-05-15T01:41:01.472Z,102968.44
2019-05-15T01:42:02.948Z,102969.78
2019-05-15T01:43:04.324Z,102971.12
2019-05-15T01:44:05.699Z,102972.47
2019-05-15T01:45:08.692Z,102967.19
2019-05-15T01:46:10.355Z,102965.37
2019-05-15T01:47:11.741Z,102970.00
2019-05-15T01:48:13.124Z,102970.38
2019-05-15T01:49:14.608Z,102971.72
2019-05-15T01:50:18.403Z,102974.03
2019-05-15T01:51:19.278Z,102968.28
2019-05-15T01:52:20.678Z,102974.50
2019-05-15T01:53:22.056Z,102970.59
2019-05-15T01:54:23.461Z,102970.23
2019-05-15T01:55:24.981Z,102970.23
2019-05-15T01:56:26.376Z,102972.41
2019-05-15T01:57:28.721Z,102972.91
2019-05-15T01:58:30.515Z,102967.62
2019-05-15T01:59:32.008Z,102972.54
2019-05-15T02:00:33.388Z,102970.83
2019-05-15T02:01:34.780Z,102968.13
2019-05-15T02:02:38.650Z,102974.35
2019-05-15T02:03:39.588Z,102968.60
2019-05-15T02:04:40.996Z,102970.23
2019-05-15T02:05:42.382Z,102968.00
2019-05-15T02:06:43.874Z,102968.98
2019-05-15T02:07:47.799Z,102968.13
2019-05-15T02:08:49.618Z,102965.82
2019-05-15T02:09:51.288Z,102965.82
2019-05-15T02:10:52.675Z,102966.66
2019-05-15T02:11:54.047Z,102964.48
2019-05-15T02:12:55.645Z,102956.51
2019-05-15T02:13:58.646Z,102956.88
2019-05-15T02:15:00.108Z,102950.29
2019-05-15T02:16:01.588Z,102954.69
2019-05-15T02:17:02.963Z,102951.03
2019-05-15T02:18:04.372Z,102951.50
2019-05-15T02:19:05.766Z,102958.59
2019-05-15T02:20:08.314Z,102954.09
2019-05-15T02:21:10.566Z,102951.87
2019-05-15T02:22:12.021Z,102953.50
2019-05-15T02:23:13.451Z,102957.53
2019-05-15T02:24:14.829Z,102952.16
2019-05-15T02:25:18.415Z,102958.87
2019-05-15T02:26:19.493Z,102958.00
2019-05-15T02:27:20.886Z,102959.84
2019-05-15T02:28:22.323Z,102956.66
2019-05-15T02:29:25.146Z,102961.66
2019-05-15T02:30:30.087Z,102956.78
2019-05-15T02:31:30.522Z,102955.44
2019-05-15T02:32:31.957Z,102956.78
2019-05-15T02:33:33.498Z,102957.76
2019-05-15T02:34:34.876Z,102959.94
2019-05-15T02:35:38.891Z,102960.81
2019-05-15T02:36:40.235Z,102961.79
2019-05-15T02:37:41.850Z,102958.59
2019-05-15T02:38:43.240Z,102958.13
2019-05-15T02:39:45.179Z,102963.13
2019-05-15T02:40:49.295Z,102967.62
2019-05-15T02:41:49.916Z,102962.76
2019-05-15T02:42:51.328Z,102958.36
2019-05-15T02:43:52.858Z,102969.95
2019-05-15T02:44:54.244Z,102964.57
2019-05-15T02:45:55.642Z,102966.51
2019-05-15T02:46:58.841Z,102967.85
2019-05-15T02:48:00.326Z,102971.05
2019-05-15T02:49:01.702Z,102969.33
2019-05-15T02:50:05.018Z,102972.48
2019-05-15T02:51:09.428Z,102965.02
2019-05-15T02:52:10.131Z,102965.86
2019-05-15T02:53:11.565Z,102971.73
2019-05-15T02:54:13.106Z,102976.73
2019-05-15T02:55:14.486Z,102977.20
2019-05-15T02:56:15.878Z,102971.58
2019-05-15T02:57:19.238Z,102968.39
2019-05-15T02:58:21.803Z,102972.05
2019-05-15T02:59:23.374Z,102972.92
2019-05-15T03:00:37.773Z,102971.08
2019-05-15T03:01:28.659Z,102973.39
2019-05-15T03:02:30.254Z,102976.08
2019-05-15T03:03:31.642Z,102976.08
2019-05-15T03:04:33.048Z,102979.73
2019-05-15T03:05:34.422Z,102980.70
2019-05-15T03:06:38.641Z,102979.36
2019-05-15T03:07:40.353Z,102981.95
2019-05-15T03:08:42.291Z,102979.73
2019-05-15T03:09:43.705Z,102981.08
2019-05-15T03:10:45.189Z,102975.70
2019-05-15T03:11:49.429Z,102979.73
2019-05-15T03:12:49.977Z,102979.73
2019-05-15T03:13:51.350Z,102977.42
2019-05-15T03:14:52.813Z,102976.08
2019-05-15T03:15:54.298Z,102976.95
2019-05-15T03:16:59.322Z,102977.80
2019-05-15T03:18:00.324Z,102973.17
2019-05-15T03:19:01.971Z,102974.89
2019-05-15T03:20:09.927Z,102973.45
2019-05-15T03:21:10.084Z,102970.77
2019-05-15T03:22:11.708Z,102971.05
2019-05-15T03:23:13.104Z,102972.77
2019-05-15T03:24:14.581Z,102974.48
2019-05-15T03:25:18.950Z,102975.32
2019-05-15T03:26:19.913Z,102974.35
2019-05-15T03:27:21.509Z,102977.41
2019-05-15T03:28:22.919Z,102970.70
2019-05-15T03:29:24.330Z,102977.78
2019-05-15T03:30:25.826Z,102971.81
2019-05-15T03:31:47.766Z,102975.00
2019-05-15T03:32:41.978Z,102970.97
2019-05-15T03:33:37.017Z,102977.09
2019-05-15T03:34:46.204Z,102970.38
2019-05-15T03:35:43.197Z,102970.75
2019-05-15T03:36:45.717Z,102973.91
2019-05-15T03:37:49.244Z,102975.53
2019-05-15T03:38:50.808Z,102974.19
2019-05-15T03:39:52.301Z,102974.56
2019-05-15T03:40:53.741Z,102973.59
2019-05-15T03:41:55.113Z,102973.97
2019-05-15T03:42:59.342Z,102971.74
2019-05-15T03:43:59.876Z,102979.71
2019-05-15T03:45:01.341Z,102977.87
2019-05-15T03:46:03.757Z,102972.99
2019-05-15T03:47:05.272Z,102973.37
2019-05-15T03:48:09.295Z,102972.39
2019-05-15T03:49:10.683Z,102979.95
2019-05-15T03:50:12.183Z,102970.08
2019-05-15T03:51:13.794Z,102972.02
2019-05-15T03:52:15.173Z,102976.42
2019-05-15T03:53:19.334Z,102975.08
2019-05-15T03:54:19.851Z,102975.08
2019-05-15T03:55:21.251Z,102979.48
2019-05-15T03:56:22.729Z,102973.37
2019-05-15T03:57:24.242Z,102977.77
2019-05-15T03:58:28.493Z,102971.42
2019-05-15T03:59:29.635Z,102976.80
2019-05-15T04:00:31.070Z,102975.92
2019-05-15T04:01:38.530Z,102979.48
2019-05-15T04:02:38.999Z,102979.48
2019-05-15T04:03:39.609Z,102983.52
2019-05-15T04:04:40.986Z,102980.23
2019-05-15T04:05:42.377Z,102975.83
2019-05-15T04:06:43.887Z,102982.08
2019-05-15T04:07:45.301Z,102977.92
2019-05-15T04:08:49.649Z,102977.08
2019-05-15T04:09:50.133Z,102979.64
2019-05-15T04:10:51.541Z,102978.67
2019-05-15T04:11:52.966Z,102984.05
2019-05-15T04:12:54.446Z,102980.52
2019-05-15T04:13:59.202Z,102979.64
2019-05-15T04:14:59.755Z,102982.70
2019-05-15T04:16:01.458Z,102984.05
2019-05-15T04:17:02.932Z,102979.55
2019-05-15T04:18:04.438Z,102980.02
2019-05-15T04:19:05.943Z,102981.36
2019-05-15T04:20:09.822Z,102975.98
2019-05-15T04:21:11.658Z,102976.95
2019-05-15T04:22:13.110Z,102978.67
2019-05-15T04:23:19.109Z,102980.52
2019-05-15T04:24:21.770Z,102977.32
2019-05-15T04:25:23.939Z,102981.36
2019-05-15T04:26:28.686Z,102977.32
2019-05-15T04:27:30.559Z,102980.89
2019-05-15T04:28:32.343Z,102982.23
2019-05-15T04:29:33.733Z,102978.67
2019-05-15T04:30:35.139Z,102980.02
2019-05-15T04:31:51.748Z,102982.83
2019-05-15T04:32:40.292Z,102978.80
2019-05-15T04:33:41.870Z,102979.17
2019-05-15T04:34:43.283Z,102980.98
2019-05-15T04:35:44.687Z,102983.67
2019-05-15T04:36:46.100Z,102979.64
2019-05-15T04:37:49.490Z,102981.95
2019-05-15T04:38:51.092Z,102978.80
2019-05-15T04:39:52.490Z,102976.48
2019-05-15T04:40:53.861Z,102984.05
2019-05-15T04:41:55.259Z,102980.02
2019-05-15T04:42:59.290Z,102975.61
2019-05-15T04:44:00.087Z,102978.67
2019-05-15T04:45:01.489Z,102983.45
2019-05-15T04:46:03.404Z,102978.67
2019-05-15T04:47:04.813Z,102980.89
2019-05-15T04:48:09.540Z,102981.36
2019-05-15T04:49:09.581Z,102980.89
2019-05-15T04:50:11.279Z,102974.64
2019-05-15T04:51:12.663Z,102981.36
2019-05-15T04:52:14.057Z,102987.61
2019-05-15T04:53:15.481Z,102980.98
2019-05-15T04:54:19.721Z,102983.67
2019-05-15T04:55:20.250Z,102986.86
2019-05-15T04:56:21.633Z,102983.67
2019-05-15T04:57:23.154Z,102988.58
2019-05-15T04:58:24.545Z,102989.42
2019-05-15T04:59:29.808Z,102985.02
2019-05-15T05:00:42.821Z,102985.02
2019-05-15T05:01:44.296Z,102993.45
2019-05-15T05:02:45.691Z,102989.42
2019-05-15T05:03:49.625Z,102990.89
2019-05-15T05:04:50.371Z,102986.48
2019-05-15T05:05:51.768Z,102993.67
2019-05-15T05:06:53.274Z,102994.27
2019-05-15T05:07:55.050Z,102996.36
2019-05-15T05:08:59.481Z,102999.43
2019-05-15T05:09:59.739Z,102992.61
2019-05-15T05:11:01.161Z,102998.23
2019-05-15T05:12:02.509Z,102999.36
2019-05-15T05:13:03.905Z,103001.45
2019-05-15T05:14:08.261Z,102994.85
2019-05-15T05:15:08.794Z,103000.63
2019-05-15T05:16:10.234Z,102997.71
2019-05-15T05:17:11.709Z,102996.20
2019-05-15T05:18:13.105Z,102998.30
2019-05-15T05:19:15.519Z,102996.22
2019-05-15T05:20:17.956Z,103003.97
2019-05-15T05:21:19.426Z,103001.05
2019-05-15T05:22:20.834Z,102998.88
2019-05-15T05:23:22.336Z,102990.95
2019-05-15T05:24:23.864Z,102991.23
2019-05-15T05:25:25.236Z,102987.80
2019-05-15T05:26:29.173Z,102990.64
2019-05-15T05:27:29.944Z,102986.37
2019-05-15T05:28:31.361Z,102987.02
2019-05-15T05:29:32.792Z,102984.09
2019-05-15T05:30:34.165Z,102986.08
2019-05-15T05:31:35.650Z,102986.22
2019-05-15T05:32:38.941Z,102987.70
2019-05-15T05:33:40.722Z,102990.91
2019-05-15T05:34:42.215Z,102981.72
2019-05-15T05:35:44.104Z,102977.84
2019-05-15T05:36:47.882Z,102979.80
2019-05-15T05:37:49.024Z,102971.48
2019-05-15T05:38:50.528Z,102973.47
2019-05-15T05:39:51.924Z,102975.45
2019-05-15T05:40:53.299Z,102980.61
2019-05-15T05:41:54.793Z,102980.88
2019-05-15T05:42:56.282Z,102982.48
2019-05-15T05:43:58.727Z,102982.25
2019-05-15T05:45:00.189Z,102985.69
2019-05-15T05:46:01.672Z,102984.09
2019-05-15T05:47:03.130Z,102982.61
2019-05-15T05:48:04.505Z,102973.09
2019-05-15T05:49:08.112Z,102983.98
2019-05-15T05:50:09.599Z,102977.25
2019-05-15T05:51:11.095Z,102982.77
2019-05-15T05:52:12.466Z,102976.77
2019-05-15T05:53:13.853Z,102986.58
2019-05-15T05:54:15.239Z,102979.84
2019-05-15T05:55:17.880Z,102982.42
2019-05-15T05:56:19.314Z,102984.98
2019-05-15T05:57:20.718Z,102980.10
2019-05-15T05:58:22.106Z,102983.39
2019-05-15T05:59:23.502Z,102983.30
2019-05-15T06:00:33.798Z,102980.97
2019-05-15T06:01:38.366Z,102977.77
2019-05-15T06:02:47.421Z,102974.97
2019-05-15T06:03:41.760Z,102981.20
2019-05-15T06:04:43.153Z,102980.83
2019-05-15T06:05:44.580Z,102981.09
2019-05-15T06:06:48.621Z,102979.84
2019-05-15T06:07:49.362Z,102977.52
2019-05-15T06:08:50.737Z,102975.70
2019-05-15T06:09:52.148Z,102983.79
2019-05-15T06:10:53.572Z,102981.94
2019-05-15T06:11:54.973Z,102983.28
2019-05-15T06:12:58.706Z,102984.26
2019-05-15T06:13:59.649Z,102977.89
2019-05-15T06:15:01.033Z,102981.09
2019-05-15T06:16:02.570Z,102988.20
2019-05-15T06:17:04.136Z,102982.44
2019-05-15T06:18:08.142Z,102987.33
2019-05-15T06:19:09.065Z,102982.44
2019-05-15T06:20:11.477Z,102983.65
2019-05-15T06:21:12.893Z,102980.95
2019-05-15T06:22:14.269Z,102987.22
2019-05-15T06:23:25.549Z,102987.69
2019-05-15T06:24:23.119Z,102983.65
2019-05-15T06:25:24.517Z,102983.04
2019-05-15T06:26:28.141Z,102977.79
2019-05-15T06:27:29.235Z,102987.69
2019-05-15T06:28:30.642Z,102983.65
2019-05-15T06:29:32.050Z,102986.71
2019-05-15T06:30:33.454Z,102993.45
2019-05-15T06:31:34.881Z,102987.59
2019-05-15T06:32:39.454Z,102984.38
2019-05-15T06:33:39.548Z,102984.02
2019-05-15T06:34:40.920Z,102988.06
2019-05-15T06:35:42.314Z,102987.59
2019-05-15T06:36:43.701Z,102988.94
2019-05-15T06:37:45.300Z,102992.37
2019-05-15T06:38:48.385Z,102989.41
2019-05-15T06:39:50.029Z,102990.28
2019-05-15T06:40:51.558Z,102988.94
2019-05-15T06:41:53.122Z,102985.73
2019-05-15T06:42:54.502Z,102987.08
2019-05-15T06:43:55.904Z,102993.34
2019-05-15T06:44:58.875Z,102994.19
2019-05-15T06:46:00.582Z,102994.19
2019-05-15T06:47:01.990Z,102993.34
2019-05-15T06:48:04.464Z,102996.88
2019-05-15T06:49:05.875Z,103001.43
2019-05-15T06:50:08.822Z,103002.27
2019-05-15T06:51:10.189Z,102996.88
2019-05-15T06:52:11.608Z,102995.53
2019-05-15T06:53:12.987Z,102994.19
2019-05-15T06:54:14.382Z,103002.64
2019-05-15T06:55:18.183Z,102999.95
2019-05-15T06:56:19.157Z,102993.20
2019-05-15T06:57:20.677Z,102998.59
2019-05-15T06:58:25.018Z,103000.31
2019-05-15T06:59:25.893Z,103000.45
2019-05-15T07:00:28.360Z,103005.70
2019-05-15T07:01:29.816Z,102994.55
2019-05-15T07:02:31.210Z,103000.92
2019-05-15T07:03:32.582Z,103004.12
2019-05-15T07:04:33.982Z,102999.58
2019-05-15T07:05:35.361Z,103001.53
2019-05-15T07:06:38.158Z,103002.87
2019-05-15T07:07:39.678Z,103002.87
2019-05-15T07:08:41.200Z,103000.55
2019-05-15T07:09:42.616Z,103004.23
2019-05-15T07:10:48.376Z,103007.29
2019-05-15T07:11:49.221Z,103002.41
2019-05-15T07:12:51.495Z,103003.25
2019-05-15T07:13:53.006Z,103006.92
2019-05-15T07:14:54.404Z,103007.80
2019-05-15T07:15:55.784Z,103004.73
2019-05-15T07:16:59.282Z,103008.27
2019-05-15T07:18:00.506Z,103006.08
2019-05-15T07:19:01.965Z,103005.20
2019-05-15T07:20:08.718Z,103007.06
2019-05-15T07:21:10.718Z,103007.06
2019-05-15T07:22:12.170Z,103003.86
2019-05-15T07:23:13.568Z,103008.77
2019-05-15T07:24:14.997Z,103006.19
2019-05-15T07:25:18.867Z,103009.75
2019-05-15T07:26:20.097Z,103008.88
2019-05-15T07:27:21.489Z,103010.59
2019-05-15T07:28:22.979Z,103003.86
2019-05-15T07:29:24.369Z,103006.19
2019-05-15T07:30:26.060Z,103007.90
2019-05-15T07:31:28.853Z,103002.14
2019-05-15T07:32:30.451Z,103006.19
2019-05-15T07:33:39.694Z,103000.80
2019-05-15T07:34:35.180Z,103008.41
2019-05-15T07:35:38.579Z,102999.95
2019-05-15T07:36:39.905Z,103004.00
2019-05-15T07:37:41.416Z,103006.19
2019-05-15T07:38:42.923Z,102996.39
2019-05-15T07:39:44.307Z,103004.00
2019-05-15T07:40:51.730Z,103003.13
2019-05-15T07:41:49.196Z,103007.53
2019-05-15T07:42:50.612Z,103009.86
2019-05-15T07:43:52.025Z,103007.16
2019-05-15T07:44:53.439Z,103006.80
2019-05-15T07:45:55.931Z,103006.80
2019-05-15T07:46:58.437Z,103005.95
2019-05-15T07:47:59.992Z,103008.14
2019-05-15T07:49:01.397Z,103005.59
2019-05-15T07:50:08.677Z,103011.81
2019-05-15T07:51:11.712Z,103008.28
2019-05-15T07:52:13.363Z,103010.09
2019-05-15T07:53:14.736Z,103007.54
2019-05-15T07:54:18.055Z,103011.08
2019-05-15T07:55:19.410Z,103005.32
2019-05-15T07:56:20.804Z,103010.34
2019-05-15T07:57:22.172Z,103002.25
2019-05-15T07:58:23.575Z,103001.78
2019-05-15T07:59:24.989Z,103003.13
2019-05-15T08:00:28.859Z,103002.25
2019-05-15T08:01:29.962Z,102999.93
2019-05-15T08:02:32.354Z,103000.44
2019-05-15T08:03:33.753Z,102998.58
2019-05-15T08:04:35.268Z,102997.73
2019-05-15T08:05:39.452Z,102999.45
2019-05-15T08:06:40.950Z,102997.60
2019-05-15T08:07:42.333Z,102994.44
2019-05-15T08:08:43.838Z,102993.93
2019-05-15T08:09:45.539Z,102996.16
2019-05-15T08:10:48.844Z,102998.34
2019-05-15T08:11:50.333Z,102995.65
2019-05-15T08:12:51.719Z,103001.04
2019-05-15T08:13:53.102Z,103000.56
2019-05-15T08:14:54.549Z,102998.34
2019-05-15T08:15:58.021Z,102996.99
2019-05-15T08:16:59.454Z,102994.30
2019-05-15T08:18:08.743Z,102993.69
2019-05-15T08:19:04.300Z,102990.16
2019-05-15T08:20:09.361Z,102985.61
2019-05-15T08:21:10.848Z,102991.36
2019-05-15T08:22:15.006Z,102985.61
2019-05-15T08:23:15.645Z,102984.26
2019-05-15T08:24:18.921Z,102985.00
2019-05-15T08:25:31.084Z,102991.73
2019-05-15T08:26:23.923Z,102994.80
2019-05-15T08:27:29.679Z,102990.14
2019-05-15T08:28:29.284Z,102990.28
2019-05-15T08:29:30.694Z,102994.69
2019-05-15T08:30:39.124Z,102988.06
2019-05-15T08:31:40.500Z,102983.55
2019-05-15T08:32:41.901Z,102984.89
2019-05-15T08:33:43.272Z,102989.77
2019-05-15T08:34:44.669Z,102985.36
2019-05-15T08:35:51.109Z,102992.23
2019-05-15T08:36:49.621Z,103000.55
2019-05-15T08:37:51.031Z,102988.06
2019-05-15T08:38:52.444Z,102989.41
2019-05-15T08:39:53.848Z,102991.73
2019-05-15T08:40:55.252Z,102994.80
2019-05-15T08:41:58.463Z,102997.48
2019-05-15T08:43:02.161Z,102989.41
2019-05-15T08:44:03.378Z,102986.71
2019-05-15T08:45:05.513Z,102984.38
2019-05-15T08:46:08.323Z,102979.97
2019-05-15T08:47:10.055Z,102990.14
2019-05-15T08:48:11.471Z,102991.02
2019-05-15T08:49:12.898Z,102978.39
2019-05-15T08:50:14.658Z,102968.11
2019-05-15T08:51:16.084Z,102984.28
2019-05-15T08:52:18.939Z,102985.48
2019-05-15T08:53:20.657Z,102981.45
2019-05-15T08:54:22.048Z,102986.47
2019-05-15T08:55:24.445Z,102991.39
2019-05-15T08:56:28.688Z,102990.41
2019-05-15T08:57:29.152Z,102989.53
2019-05-15T08:58:30.559Z,102990.88
2019-05-15T08:59:32.042Z,102989.53
2019-05-15T09:00:33.445Z,102985.48
2019-05-15T09:01:34.836Z,102981.95
2019-05-15T09:02:38.284Z,102982.33
2019-05-15T09:03:39.520Z,102980.97
2019-05-15T09:04:40.901Z,102983.56
2019-05-15T09:05:42.312Z,102986.26
2019-05-15T09:06:43.741Z,102977.67
2019-05-15T09:07:45.263Z,102987.98
2019-05-15T09:08:49.055Z,102986.63
2019-05-15T09:09:50.365Z,102984.30
2019-05-15T09:10:52.778Z,102987.00
2019-05-15T09:11:54.286Z,102987.84
2019-05-15T09:12:55.666Z,102988.34
2019-05-15T09:13:59.479Z,102982.95
2019-05-15T09:15:00.365Z,102976.30
2019-05-15T09:16:01.761Z,102986.86
2019-05-15T09:17:03.253Z,102991.77
2019-05-15T09:18:14.755Z,102991.77
2019-05-15T09:19:08.446Z,102992.14
2019-05-15T09:20:10.358Z,102990.80
2019-05-15T09:21:11.812Z,102993.96
2019-05-15T09:22:15.066Z,102996.19
2019-05-15T09:23:19.231Z,102996.05
2019-05-15T09:24:20.021Z,102990.66
2019-05-15T09:25:21.420Z,102993.72
2019-05-15T09:26:22.906Z,102996.78
2019-05-15T09:27:24.300Z,102999.37
2019-05-15T09:28:25.702Z,102997.41
2019-05-15T09:29:28.558Z,102995.19
2019-05-15T09:30:30.116Z,102992.86
2019-05-15T09:31:31.620Z,102992.76
2019-05-15T09:32:33.044Z,102994.84
2019-05-15T09:33:34.417Z,102996.05
2019-05-15T09:34:47.864Z,102995.07
2019-05-15T09:35:39.443Z,102994.23
2019-05-15T09:36:44.949Z,103000.97
2019-05-15T09:37:44.384Z,102995.95
2019-05-15T09:38:45.789Z,102995.33
2019-05-15T09:39:48.960Z,102993.98
2019-05-15T09:40:51.245Z,102991.66
2019-05-15T09:41:54.575Z,102993.38
2019-05-15T09:42:57.852Z,102992.42
2019-05-15T09:43:59.281Z,102987.50
2019-05-15T09:45:00.685Z,102985.69
2019-05-15T09:46:02.061Z,102988.75
2019-05-15T09:47:03.969Z,102988.27
2019-05-15T09:48:09.509Z,102983.72
2019-05-15T09:49:09.044Z,102986.78
2019-05-15T09:50:10.949Z,102978.59
2019-05-15T09:51:12.393Z,102974.55
2019-05-15T09:52:13.878Z,102975.39
2019-05-15T09:53:15.426Z,102977.61
2019-05-15T09:54:19.238Z,102972.69
2019-05-15T09:55:20.168Z,102977.61
2019-05-15T09:56:21.558Z,102989.97
2019-05-15T09:57:22.947Z,102983.59
2019-05-15T09:58:24.356Z,102983.59
2019-05-15T09:59:27.990Z,102978.94
2019-05-15T10:00:29.464Z,102973.17
2019-05-15T10:01:30.904Z,102977.59
2019-05-15T10:02:32.302Z,102981.02
2019-05-15T10:03:33.694Z,102973.91
2019-05-15T10:04:35.093Z,102975.26
2019-05-15T10:05:38.650Z,102973.80
2019-05-15T10:06:39.816Z,102976.97
2019-05-15T10:07:41.227Z,102974.64
2019-05-15T10:08:42.725Z,102966.70
2019-05-15T10:09:44.110Z,102971.22
2019-05-15T10:10:45.530Z,102971.22
2019-05-15T10:11:49.173Z,102971.95
2019-05-15T10:12:50.409Z,102969.39
2019-05-15T10:13:51.894Z,102966.70
2019-05-15T10:14:54.400Z,102966.70
2019-05-15T10:15:55.809Z,102961.78
2019-05-15T10:16:58.428Z,102966.19
2019-05-15T10:17:59.978Z,102963.13
2019-05-15T10:19:01.419Z,102966.70
2019-05-15T10:20:05.399Z,102968.88
2019-05-15T10:21:08.990Z,102968.05
2019-05-15T10:22:10.150Z,102972.09
2019-05-15T10:23:11.566Z,102972.09
2019-05-15T10:24:12.993Z,102969.86
2019-05-15T10:25:14.479Z,102971.72
2019-05-15T10:26:15.879Z,102972.19
2019-05-15T10:27:18.023Z,102973.55
2019-05-15T10:28:19.682Z,102978.09
2019-05-15T10:29:21.234Z,102973.55
2019-05-15T10:30:22.712Z,102970.11
2019-05-15T10:31:24.219Z,102976.02
2019-05-15T10:32:28.792Z,102975.51
2019-05-15T10:33:29.579Z,102971.60
2019-05-15T10:34:31.316Z,102974.30
2019-05-15T10:35:32.822Z,102968.03
2019-05-15T10:36:34.233Z,102972.59
2019-05-15T10:37:35.641Z,102969.37
2019-05-15T10:38:39.197Z,102967.30
2019-05-15T10:39:40.380Z,102970.98
2019-05-15T10:40:58.674Z,102970.98
2019-05-15T10:41:45.045Z,102971.48
2019-05-15T10:42:49.256Z,102970.61
2019-05-15T10:43:56.630Z,102969.40
2019-05-15T10:44:53.020Z,102966.56
2019-05-15T10:45:54.875Z,102968.53
2019-05-15T10:46:58.506Z,102969.40
2019-05-15T10:47:59.649Z,102964.48
2019-05-15T10:49:01.057Z,102965.94
2019-05-15T10:50:05.187Z,102966.34
2019-05-15T10:51:10.099Z,102974.03
2019-05-15T10:52:11.368Z,102961.42
2019-05-15T10:53:13.695Z,102964.11
2019-05-15T10:54:15.068Z,102959.20
2019-05-15T10:55:18.887Z,102961.02
2019-05-15T10:56:20.230Z,102961.02
2019-05-15T10:57:22.619Z,102961.89
2019-05-15T10:58:24.001Z,102961.89
2019-05-15T10:59:27.601Z,102967.76
2019-05-15T11:00:28.776Z,102959.67
2019-05-15T11:01:30.198Z,102961.02
2019-05-15T11:02:31.596Z,102964.59
2019-05-15T11:03:35.072Z,102963.72
2019-05-15T11:04:36.261Z,102958.83
2019-05-15T11:05:44.895Z,102965.06
2019-05-15T11:06:40.928Z,102958.33
2019-05-15T11:07:42.316Z,102957.38
2019-05-15T11:08:43.705Z,102955.63
2019-05-15T11:09:45.086Z,102952.56
2019-05-15T11:10:48.623Z,102951.22
2019-05-15T11:11:51.659Z,102949.39
2019-05-15T11:12:53.078Z,102946.70
2019-05-15T11:13:54.493Z,102950.23
2019-05-15T11:15:58.134Z,102953.44
2019-05-15T11:16:59.517Z,102948.52
2019-05-15T11:18:01.011Z,102954.89
2019-05-15T11:19:02.398Z,102948.16
2019-05-15T11:20:08.167Z,102948.66
2019-05-15T11:21:08.915Z,102950.01
2019-05-15T11:22:10.289Z,102957.12
2019-05-15T11:23:19.938Z,102956.86
2019-05-15T11:24:20.923Z,102957.23
2019-05-15T11:25:22.292Z,102958.94
2019-05-15T11:26:23.721Z,102966.66
2019-05-15T11:27:25.105Z,102965.31
2019-05-15T11:28:31.794Z,102973.03
2019-05-15T11:29:30.020Z,102968.63
2019-05-15T11:30:31.446Z,102967.64
2019-05-15T11:31:32.847Z,102962.72
2019-05-15T11:32:34.221Z,102970.81
2019-05-15T11:33:38.336Z,102965.92
2019-05-15T11:34:38.890Z,102969.46
2019-05-15T11:35:56.415Z,102963.23
2019-05-15T11:36:43.601Z,102957.11
2019-05-15T11:37:46.873Z,102955.62
2019-05-15T11:38:48.735Z,102960.17
2019-05-15T11:39:50.201Z,102957.94
2019-05-15T11:40:51.605Z,102954.41
2019-05-15T11:41:53.045Z,102956.23
2019-05-15T11:42:54.407Z,102951.34
2019-05-15T11:43:55.803Z,102946.94
2019-05-15T11:44:58.432Z,102945.22
2019-05-15T11:45:59.974Z,102942.16
2019-05-15T11:47:01.390Z,102942.53
2019-05-15T11:48:02.795Z,102947.92
2019-05-15T11:49:04.218Z,102944.48